Time;durP1;ratioP1;P1;durP2;ratioP2;P2;SDS_P1;SDS_P2;PMS_P1;PMS_P2;Temp;Humidity;BMP_temperature;BMP_pressure;BME280_temperature;BME280_humidity;BME280_pressure;Samples;Min_cycle;Max_cycle;Signal;HPM_P1;HPM_P2
2022/07/30 00:01:23;;;;;;;7.75;5.50;;;16.70;99.90;;;;;;5094312;28;20032;-68
2022/07/30 00:03:48;;;;;;;11.80;6.70;;;16.70;99.90;;;;;;5093301;28;20040;-69
2022/07/30 00:06:15;;;;;;;9.32;6.32;;;16.50;99.90;;;;;;5094404;28;20584;-68
2022/07/30 00:08:40;;;;;;;12.27;6.68;;;16.50;99.90;;;;;;5094588;28;20052;-69
2022/07/30 00:11:06;;;;;;;8.77;6.65;;;16.40;99.90;;;;;;5092793;28;20044;-69
2022/07/30 00:13:32;;;;;;;9.25;5.78;;;16.50;99.90;;;;;;5092924;28;20052;-68
2022/07/30 00:15:57;;;;;;;8.75;5.65;;;16.40;99.90;;;;;;5094239;28;20039;-69
2022/07/30 00:18:23;;;;;;;7.82;6.45;;;16.30;99.90;;;;;;5094264;28;20032;-69
2022/07/30 00:20:48;;;;;;;9.10;6.53;;;16.40;99.90;;;;;;5093788;28;20455;-69
2022/07/30 00:23:14;;;;;;;10.15;7.03;;;16.30;99.90;;;;;;5092416;28;20051;-68
2022/07/30 00:25:39;;;;;;;9.07;7.18;;;16.50;99.90;;;;;;5094167;28;20036;-69
2022/07/30 00:28:05;;;;;;;11.90;7.82;;;16.40;99.90;;;;;;5094016;28;20119;-69
2022/07/30 00:30:30;;;;;;;10.70;6.70;;;16.40;99.90;;;;;;5092377;28;20089;-69
2022/07/30 00:32:56;;;;;;;10.30;7.07;;;16.40;99.90;;;;;;5094021;28;20036;-69
2022/07/30 00:35:22;;;;;;;9.70;7.60;;;16.40;99.90;;;;;;5093815;28;20036;-69
2022/07/30 00:37:47;;;;;;;11.20;8.18;;;16.40;99.90;;;;;;5093865;28;20040;-69
2022/07/30 00:40:13;;;;;;;9.52;7.45;;;16.40;99.90;;;;;;5093623;28;20040;-68
2022/07/30 00:42:42;;;;;;;11.90;7.75;;;16.30;99.90;;;;;;5093784;28;20039;-68
2022/07/30 00:45:09;;;;;;;11.10;7.57;;;16.50;99.90;;;;;;5093696;28;20497;-68
2022/07/30 00:47:35;;;;;;;10.90;7.45;;;16.50;99.90;;;;;;5092466;28;20032;-68
2022/07/30 00:50:03;;;;;;;11.30;8.55;;;16.40;99.90;;;;;;5093062;28;20112;-69
2022/07/30 00:52:32;;;;;;;12.82;10.40;;;16.30;99.90;;;;;;5092513;28;20047;-69
2022/07/30 00:54:59;;;;;;;13.27;9.82;;;16.50;99.90;;;;;;5093607;28;20086;-69
2022/07/30 00:57:25;;;;;;;12.43;8.77;;;16.50;99.90;;;;;;5092559;28;20402;-69
2022/07/30 00:59:51;;;;;;;13.43;8.45;;;16.50;99.90;;;;;;5093219;28;20040;-68
2022/07/30 01:02:16;;;;;;;10.73;8.52;;;16.30;99.90;;;;;;5093437;28;20036;-69
2022/07/30 01:04:42;;;;;;;9.85;8.13;;;16.40;99.90;;;;;;5092082;28;20132;-68
2022/07/30 01:07:07;;;;;;;11.27;7.65;;;16.30;99.90;;;;;;5093350;28;20127;-68
2022/07/30 01:09:33;;;;;;;12.43;7.45;;;16.40;99.90;;;;;;5091702;28;20135;-69
2022/07/30 01:11:58;;;;;;;11.13;7.53;;;16.20;99.90;;;;;;5093314;28;20036;-69
2022/07/30 01:14:24;;;;;;;11.32;7.68;;;16.20;99.90;;;;;;5091875;28;20048;-68
2022/07/30 01:16:50;;;;;;;14.27;7.82;;;16.20;99.90;;;;;;5075246;28;20038;-68
2022/07/30 01:22:19;;;;;;;10.32;7.78;;;16.20;99.90;;;;;;5091724;28;20122;-69
2022/07/30 01:25:03;;;;;;;12.85;7.68;;;16.00;99.90;;;;;;5093108;28;20040;-69
2022/07/30 01:27:32;;;;;;;8.05;6.75;;;16.10;99.90;;;;;;5092888;28;20085;-68
2022/07/30 01:30:00;;;;;;;10.80;6.75;;;16.10;99.90;;;;;;5092748;28;20036;-69
2022/07/30 01:32:29;;;;;;;10.85;6.55;;;16.10;99.90;;;;;;5092946;28;20100;-68
2022/07/30 01:34:57;;;;;;;6.75;5.80;;;16.00;99.90;;;;;;5092237;28;20036;-68
2022/07/30 01:37:24;;;;;;;6.47;4.68;;;16.00;99.90;;;;;;5091339;28;20435;-69
2022/07/30 01:39:51;;;;;;;5.68;4.15;;;15.90;99.90;;;;;;5092370;28;20036;-68
2022/07/30 01:42:19;;;;;;;6.32;4.78;;;15.70;99.90;;;;;;5092590;28;20028;-69
2022/07/30 01:44:47;;;;;;;5.85;4.53;;;15.70;99.90;;;;;;5092762;28;20128;-68
2022/07/30 01:47:14;;;;;;;9.90;5.47;;;15.60;99.90;;;;;;5091206;28;20069;-69
2022/07/30 01:49:40;;;;;;;5.45;4.78;;;15.70;99.90;;;;;;5092080;28;20075;-68
2022/07/30 01:52:08;;;;;;;8.77;5.55;;;15.80;99.90;;;;;;5091252;28;20486;-68
2022/07/30 01:54:36;;;;;;;8.45;5.55;;;15.70;99.90;;;;;;5091057;28;20044;-69
2022/07/30 01:57:03;;;;;;;10.43;6.85;;;15.70;99.90;;;;;;5092640;28;20063;-69
2022/07/30 01:59:32;;;;;;;8.73;6.53;;;15.80;99.90;;;;;;5073805;28;20044;-70
2022/07/30 02:01:58;;;;;;;9.88;6.75;;;15.70;99.90;;;;;;5092405;28;20111;-70
2022/07/30 02:04:24;;;;;;;7.88;6.20;;;15.70;99.90;;;;;;5090968;28;20040;-69
2022/07/30 02:07:09;;;;;;;7.68;5.57;;;15.60;99.90;;;;;;5092164;28;20044;-69
2022/07/30 02:09:39;;;;;;;5.80;5.00;;;15.60;99.90;;;;;;5092105;28;20075;-69
2022/07/30 02:14:55;;;;;;;4.40;3.90;;;15.30;99.90;;;;;;5090707;28;20419;-69
2022/07/30 02:17:31;;;;;;;6.20;4.53;;;15.20;99.90;;;;;;5092030;28;20600;-69
2022/07/30 02:19:59;;;;;;;7.00;5.35;;;15.20;99.90;;;;;;5091691;28;20165;-70
2022/07/30 02:22:32;;;;;;;9.00;5.53;;;15.10;99.90;;;;;;5090958;28;20044;-69
2022/07/30 02:25:00;;;;;;;6.82;5.55;;;15.10;99.90;;;;;;5092074;28;20040;-69
2022/07/30 02:27:30;;;;;;;7.25;5.68;;;15.10;99.90;;;;;;5091970;28;20579;-69
2022/07/30 02:29:59;;;;;;;7.85;6.25;;;15.10;99.90;;;;;;5091573;28;20046;-69
2022/07/30 02:32:29;;;;;;;8.57;7.43;;;15.10;99.90;;;;;;5091753;28;20078;-70
2022/07/30 02:35:02;;;;;;;10.75;7.88;;;15.20;99.90;;;;;;5090646;28;20089;-69
2022/07/30 02:37:31;;;;;;;11.00;8.02;;;15.20;99.90;;;;;;5091973;28;20119;-70
2022/07/30 02:39:58;;;;;;;10.95;7.63;;;15.10;99.90;;;;;;5090103;28;20092;-70
2022/07/30 02:42:25;;;;;;;11.18;8.30;;;15.10;99.90;;;;;;5091716;28;20493;-69
2022/07/30 02:44:53;;;;;;;9.50;8.18;;;15.10;99.90;;;;;;5086114;28;20046;-69
2022/07/30 02:47:22;;;;;;;11.02;9.35;;;15.20;99.90;;;;;;5091081;28;20040;-69
2022/07/30 02:49:49;;;;;;;11.00;9.00;;;15.10;99.90;;;;;;5089906;28;20105;-70
2022/07/30 02:52:16;;;;;;;11.63;9.30;;;15.20;99.90;;;;;;5083423;28;20555;-69
2022/07/30 02:54:42;;;;;;;11.65;8.70;;;15.20;99.90;;;;;;5091684;28;20115;-70
2022/07/30 02:57:09;;;;;;;14.07;9.95;;;15.30;99.90;;;;;;5090130;28;20067;-70
2022/07/30 02:59:38;;;;;;;13.13;9.70;;;15.30;99.90;;;;;;5091212;28;20156;-70
2022/07/30 03:02:07;;;;;;;13.00;10.55;;;15.20;99.90;;;;;;5091534;28;20067;-69
2022/07/30 03:04:34;;;;;;;13.82;10.35;;;15.30;99.90;;;;;;5091643;28;20086;-69
2022/07/30 03:07:00;;;;;;;15.50;10.32;;;15.10;99.90;;;;;;5091712;28;20062;-69
2022/07/30 03:09:27;;;;;;;11.63;10.43;;;15.10;99.90;;;;;;5089954;28;20115;-70
2022/07/30 03:11:54;;;;;;;15.40;11.93;;;15.00;99.90;;;;;;5090291;28;20052;-70
2022/07/30 03:14:20;;;;;;;14.30;11.07;;;15.10;99.90;;;;;;5091792;28;20047;-69
2022/07/30 03:16:54;;;;;;;15.63;11.98;;;15.00;99.90;;;;;;5091564;28;20036;-70
2022/07/30 03:19:22;;;;;;;14.85;11.57;;;15.10;99.90;;;;;;5089834;28;20043;-69
2022/07/30 03:21:49;;;;;;;14.38;10.52;;;15.20;99.90;;;;;;5091543;28;20036;-69
2022/07/30 03:24:16;;;;;;;13.05;11.13;;;15.10;99.90;;;;;;5090100;28;20047;-69
2022/07/30 03:26:44;;;;;;;14.60;11.30;;;15.20;99.90;;;;;;5091675;28;20093;-70
2022/07/30 03:29:12;;;;;;;15.27;10.60;;;15.20;99.90;;;;;;5089934;28;20040;-69
2022/07/30 03:31:39;;;;;;;11.95;9.90;;;15.10;99.90;;;;;;5091346;28;20409;-69
2022/07/30 03:34:07;;;;;;;10.23;9.10;;;15.20;99.90;;;;;;5091323;28;20493;-70
2022/07/30 03:36:34;;;;;;;12.60;10.20;;;15.10;99.90;;;;;;5090066;28;20036;-70
2022/07/30 03:39:01;;;;;;;11.10;9.93;;;15.20;99.90;;;;;;5091166;28;20036;-70
2022/07/30 03:41:28;;;;;;;11.00;9.32;;;15.20;99.90;;;;;;5091166;28;20397;-70
2022/07/30 03:43:55;;;;;;;10.27;8.95;;;15.20;99.90;;;;;;5091231;28;20122;-70
2022/07/30 03:46:21;;;;;;;11.73;9.40;;;15.20;99.90;;;;;;5091291;28;20063;-69
2022/07/30 03:48:47;;;;;;;9.50;8.45;;;15.10;99.90;;;;;;5091127;28;20044;-70
2022/07/30 03:51:13;;;;;;;12.13;8.98;;;15.10;99.90;;;;;;5090801;28;20036;-69
2022/07/30 03:53:42;;;;;;;10.40;8.90;;;15.20;99.90;;;;;;5089806;28;20097;-69
2022/07/30 03:56:08;;;;;;;14.68;10.50;;;15.10;99.90;;;;;;5091312;28;20036;-69
2022/07/30 03:58:36;;;;;;;10.95;9.02;;;15.10;99.90;;;;;;5091554;28;20043;-69
2022/07/30 04:01:02;;;;;;;13.60;9.73;;;15.00;99.90;;;;;;5094380;28;20072;-69
2022/07/30 04:03:30;;;;;;;10.38;8.65;;;15.00;99.90;;;;;;5093330;28;20076;-70
2022/07/30 04:05:56;;;;;;;12.60;8.60;;;15.10;99.90;;;;;;5093316;28;20044;-69
2022/07/30 04:08:22;;;;;;;12.20;9.52;;;14.90;99.90;;;;;;5094716;28;20416;-69
2022/07/30 04:10:49;;;;;;;10.93;9.82;;;14.90;99.90;;;;;;5094305;28;20032;-69
2022/07/30 04:13:14;;;;;;;11.23;9.18;;;14.80;99.90;;;;;;5093348;28;20044;-69
2022/07/30 04:15:59;;;;;;;11.20;8.52;;;14.80;99.90;;;;;;5094452;28;20521;-69
2022/07/30 04:18:26;;;;;;;8.02;7.32;;;14.70;99.90;;;;;;5093015;28;20032;-69
2022/07/30 04:20:53;;;;;;;7.78;5.80;;;14.70;99.90;;;;;;5092981;28;20060;-69
2022/07/30 04:23:19;;;;;;;6.00;5.40;;;14.50;99.90;;;;;;5094497;28;20122;-69
2022/07/30 04:25:45;;;;;;;6.20;5.60;;;14.60;99.90;;;;;;5094441;28;20119;-69
2022/07/30 04:28:12;;;;;;;5.38;4.88;;;14.50;99.90;;;;;;5094250;28;20044;-69
2022/07/30 04:30:39;;;;;;;6.32;5.63;;;14.60;99.90;;;;;;5092460;28;20056;-70
2022/07/30 04:33:04;;;;;;;6.18;5.57;;;14.50;99.90;;;;;;5092722;28;20134;-69
2022/07/30 04:35:32;;;;;;;5.82;5.22;;;14.70;99.90;;;;;;5094233;28;20457;-69
2022/07/30 04:37:59;;;;;;;6.05;5.50;;;14.60;99.90;;;;;;5094256;28;20047;-69
2022/07/30 04:40:24;;;;;;;6.82;6.13;;;14.70;99.90;;;;;;5093630;28;20036;-69
2022/07/30 04:42:50;;;;;;;7.18;6.50;;;14.70;99.90;;;;;;5093996;28;20096;-70
2022/07/30 04:45:18;;;;;;;8.10;6.80;;;14.70;99.90;;;;;;5093866;28;20032;-69
2022/07/30 04:47:45;;;;;;;6.50;5.90;;;14.80;99.90;;;;;;5092623;28;20040;-69
2022/07/30 04:50:11;;;;;;;6.53;5.90;;;14.80;99.90;;;;;;5093449;28;20043;-69
2022/07/30 04:52:38;;;;;;;6.43;5.80;;;14.90;99.90;;;;;;5092690;28;20405;-70
2022/07/30 04:55:06;;;;;;;6.80;6.10;;;14.90;99.90;;;;;;5093835;28;20039;-69
2022/07/30 04:57:34;;;;;;;7.28;6.57;;;15.00;99.90;;;;;;5093626;28;20043;-69
2022/07/30 05:00:00;;;;;;;8.10;6.38;;;15.20;99.90;;;;;;5091898;28;20535;-69
2022/07/30 05:02:29;;;;;;;6.18;5.60;;;15.20;99.90;;;;;;5093575;28;20040;-69
2022/07/30 05:04:56;;;;;;;6.15;5.55;;;15.50;99.90;;;;;;5093636;28;20056;-69
2022/07/30 05:07:23;;;;;;;5.85;5.20;;;15.50;99.90;;;;;;5092409;28;20056;-69
2022/07/30 05:09:49;;;;;;;4.93;4.53;;;15.70;99.90;;;;;;5091489;28;20382;-69
2022/07/30 05:12:14;;;;;;;4.72;4.15;;;15.80;99.90;;;;;;5092083;28;20097;-70
2022/07/30 05:14:43;;;;;;;6.15;5.55;;;15.80;99.90;;;;;;5093119;28;20079;-69
2022/07/30 05:17:09;;;;;;;8.45;6.05;;;16.00;99.90;;;;;;5093481;28;20071;-69
2022/07/30 05:19:34;;;;;;;11.57;8.32;;;16.10;99.90;;;;;;5092965;28;20036;-70
2022/07/30 05:22:00;;;;;;;13.88;10.80;;;16.40;99.90;;;;;;5093310;28;20078;-69
2022/07/30 05:24:25;;;;;;;14.77;11.43;;;16.70;99.90;;;;;;5093179;28;20119;-70
2022/07/30 05:26:51;;;;;;;15.40;11.98;;;16.80;99.90;;;;;;5093059;28;20044;-69
2022/07/30 05:29:17;;;;;;;17.15;12.98;;;17.10;99.90;;;;;;5092525;28;20481;-70
2022/07/30 05:31:42;;;;;;;16.40;13.25;;;17.20;99.90;;;;;;5093195;28;20497;-69
2022/07/30 05:34:08;;;;;;;21.40;13.43;;;17.40;99.90;;;;;;5092982;28;20036;-69
2022/07/30 05:36:33;;;;;;;16.80;13.52;;;17.50;99.90;;;;;;5091591;28;20092;-70
2022/07/30 05:38:59;;;;;;;18.70;13.30;;;17.80;99.90;;;;;;5092787;28;20039;-69
2022/07/30 05:41:28;;;;;;;17.38;12.93;;;17.90;99.90;;;;;;5092625;28;20094;-70
2022/07/30 05:43:54;;;;;;;19.15;13.43;;;18.30;99.90;;;;;;5092689;28;20040;-69
2022/07/30 05:46:19;;;;;;;16.35;12.88;;;18.60;99.90;;;;;;5092958;28;20040;-70
2022/07/30 05:48:45;;;;;;;17.08;14.20;;;18.80;99.90;;;;;;5092518;28;20550;-70
2022/07/30 05:51:11;;;;;;;16.88;13.48;;;19.00;99.90;;;;;;5102453;22;20045;-69
2022/07/30 05:53:36;;;;;;;16.10;13.15;;;19.10;99.90;;;;;;5072256;28;20401;-69
2022/07/30 05:56:02;;;;;;;24.80;15.30;;;19.10;99.90;;;;;;5072307;28;20044;-70
2022/07/30 05:58:27;;;;;;;19.30;13.90;;;19.30;99.90;;;;;;5054167;28;20035;-69
2022/07/30 06:00:53;;;;;;;17.60;14.00;;;19.30;99.90;;;;;;5053605;28;20105;-69
2022/07/30 06:03:18;;;;;;;19.15;13.82;;;19.40;99.90;;;;;;5072118;28;20043;-69
2022/07/30 06:05:44;;;;;;;16.27;13.25;;;19.50;99.90;;;;;;5037527;28;20052;-70
2022/07/30 06:08:09;;;;;;;18.48;13.63;;;19.80;99.90;;;;;;5054383;28;20040;-69
2022/07/30 06:10:35;;;;;;;17.83;13.60;;;19.90;99.90;;;;;;5053902;28;20048;-69
2022/07/30 06:13:01;;;;;;;17.23;12.98;;;20.00;99.90;;;;;;5072128;28;20039;-69
2022/07/30 06:15:26;;;;;;;17.85;13.27;;;20.10;99.90;;;;;;5072120;28;20074;-70
2022/07/30 06:17:52;;;;;;;19.15;13.18;;;20.10;99.90;;;;;;5071853;28;20483;-69
2022/07/30 06:20:19;;;;;;;14.20;12.50;;;20.30;99.90;;;;;;5071470;28;20028;-69
2022/07/30 06:22:45;;;;;;;17.08;12.73;;;20.30;99.90;;;;;;5053370;28;20036;-70
2022/07/30 06:25:11;;;;;;;18.05;13.18;;;20.70;99.90;;;;;;5071778;28;20032;-70
2022/07/30 06:27:36;;;;;;;19.60;13.52;;;20.50;99.90;;;;;;5071984;28;20110;-69
2022/07/30 06:30:05;;;;;;;15.82;12.55;;;20.60;99.90;;;;;;5071380;28;20623;-70
2022/07/30 06:32:30;;;;;;;16.92;12.80;;;20.70;99.90;;;;;;5071893;28;20379;-69
2022/07/30 06:34:56;;;;;;;15.52;12.13;;;20.90;99.90;;;;;;5053709;28;20047;-69
2022/07/30 06:37:21;;;;;;;16.77;12.32;;;21.00;99.90;;;;;;5071817;28;20028;-70
2022/07/30 06:39:47;;;;;;;18.50;12.57;;;21.20;99.90;;;;;;5071299;28;20045;-70
2022/07/30 06:42:13;;;;;;;19.70;12.13;;;21.20;99.90;;;;;;5053732;28;20079;-71
2022/07/30 06:44:38;;;;;;;15.27;11.85;;;21.30;99.90;;;;;;5071809;28;20461;-69
2022/07/30 06:47:04;;;;;;;15.20;12.20;;;21.60;99.90;;;;;;5053629;28;20076;-70
2022/07/30 06:49:31;;;;;;;16.52;11.27;;;21.70;99.90;;;;;;5071222;28;20047;-70
2022/07/30 06:51:57;;;;;;;16.42;12.13;;;21.70;99.90;;;;;;5055843;28;20044;-71
2022/07/30 06:54:23;;;;;;;14.25;11.05;;;21.80;99.90;;;;;;5037214;28;20439;-69
2022/07/30 06:56:48;;;;;;;15.02;11.35;;;21.80;99.90;;;;;;5036987;28;20489;-69
2022/07/30 06:59:14;;;;;;;14.15;10.70;;;21.80;99.90;;;;;;5071149;28;20040;-70
2022/07/30 07:01:39;;;;;;;14.02;10.27;;;21.80;99.90;;;;;;5071550;28;20115;-70
2022/07/30 07:04:05;;;;;;;15.25;10.95;;;22.00;99.90;;;;;;5071569;28;20116;-70
2022/07/30 07:06:31;;;;;;;13.00;10.15;;;22.20;99.90;;;;;;5071502;28;20101;-70
2022/07/30 07:08:57;;;;;;;11.82;9.35;;;22.40;99.90;;;;;;5053422;28;20041;-69
2022/07/30 07:11:23;;;;;;;15.52;9.57;;;22.40;99.90;;;;;;5053044;28;20043;-70
2022/07/30 07:13:48;;;;;;;17.02;9.32;;;22.40;99.90;;;;;;5053338;28;20080;-70
2022/07/30 07:16:14;;;;;;;12.32;9.27;;;22.40;99.90;;;;;;5071488;28;20032;-70
2022/07/30 07:18:39;;;;;;;13.93;9.25;;;22.60;99.90;;;;;;5036611;28;20044;-70
2022/07/30 07:21:06;;;;;;;17.23;9.85;;;22.80;99.90;;;;;;5053122;28;20068;-70
2022/07/30 07:23:32;;;;;;;13.25;8.73;;;22.80;99.90;;;;;;5071159;28;20053;-70
2022/07/30 07:25:58;;;;;;;15.40;9.13;;;22.80;99.90;;;;;;5053297;28;20040;-71
2022/07/30 07:28:23;;;;;;;17.20;8.68;;;22.90;99.90;;;;;;5071387;28;20239;-70
2022/07/30 07:30:49;;;;;;;13.38;9.35;;;23.00;99.90;;;;;;5052847;28;20090;-70
2022/07/30 07:33:14;;;;;;;11.80;7.90;;;23.20;99.90;;;;;;5054586;28;20056;-70
2022/07/30 07:35:40;;;;;;;14.73;9.65;;;23.40;99.90;;;;;;5074893;28;20116;-71
2022/07/30 07:38:05;;;;;;;13.55;7.28;;;23.30;99.90;;;;;;5057237;28;20048;-70
2022/07/30 07:40:31;;;;;;;12.23;8.55;;;23.60;99.90;;;;;;5056662;28;20494;-70
2022/07/30 07:42:56;;;;;;;15.73;8.65;;;23.50;99.90;;;;;;5074876;28;20036;-71
2022/07/30 07:45:22;;;;;;;12.43;8.27;;;23.70;99.90;;;;;;5074431;28;20033;-71
2022/07/30 07:47:49;;;;;;;9.98;7.85;;;23.80;99.90;;;;;;5056855;28;20039;-70
2022/07/30 07:50:16;;;;;;;14.18;7.43;;;24.10;99.70;;;;;;5074171;28;20080;-71
2022/07/30 07:52:42;;;;;;;11.00;7.47;;;24.10;99.20;;;;;;5056521;28;20142;-70
2022/07/30 07:55:08;;;;;;;12.65;8.13;;;24.30;98.90;;;;;;5074672;28;20127;-70
2022/07/30 07:57:44;;;;;;;17.42;8.48;;;24.30;98.40;;;;;;5056337;28;20032;-71
2022/07/30 08:00:13;;;;;;;12.73;7.65;;;24.50;97.80;;;;;;5073959;28;20490;-70
2022/07/30 08:02:39;;;;;;;8.32;7.13;;;24.60;97.90;;;;;;5056610;28;20185;-70
2022/07/30 08:05:06;;;;;;;11.77;7.13;;;24.80;97.60;;;;;;5074252;28;20158;-70
2022/07/30 08:07:32;;;;;;;11.70;6.75;;;24.90;97.30;;;;;;5056688;28;20047;-70
2022/07/30 08:09:58;;;;;;;11.38;6.15;;;24.90;97.10;;;;;;5055989;28;20124;-70
2022/07/30 08:12:23;;;;;;;8.00;5.30;;;25.10;96.40;;;;;;5055745;28;20056;-71
2022/07/30 08:14:49;;;;;;;10.23;5.82;;;25.20;96.20;;;;;;5039132;28;20068;-71
2022/07/30 08:17:15;;;;;;;10.95;4.95;;;25.30;95.70;;;;;;5056037;28;20040;-70
2022/07/30 08:19:40;;;;;;;7.75;4.80;;;25.30;94.70;;;;;;5073724;28;20032;-70
2022/07/30 08:22:06;;;;;;;8.98;4.95;;;25.30;94.70;;;;;;5074314;28;20490;-70
2022/07/30 08:24:31;;;;;;;9.98;5.32;;;25.40;94.50;;;;;;5056327;28;20111;-70
2022/07/30 08:26:57;;;;;;;11.27;6.07;;;25.50;94.20;;;;;;5056167;28;20066;-71
2022/07/30 08:29:23;;;;;;;11.45;5.75;;;25.40;93.60;;;;;;5073768;28;20077;-70
2022/07/30 08:31:48;;;;;;;10.57;6.03;;;25.40;93.80;;;;;;5055939;28;20083;-70
2022/07/30 08:34:14;;;;;;;10.80;5.82;;;25.30;93.60;;;;;;5039295;28;20048;-70
2022/07/30 08:36:40;;;;;;;10.55;6.28;;;25.40;94.00;;;;;;5055879;28;20047;-70
2022/07/30 08:39:06;;;;;;;11.63;6.43;;;25.20;93.10;;;;;;5055947;28;20093;-70
2022/07/30 08:41:32;;;;;;;12.85;6.00;;;25.30;92.90;;;;;;5055775;28;20501;-70
2022/07/30 08:43:59;;;;;;;14.55;6.22;;;25.30;93.00;;;;;;5073467;28;20037;-70
2022/07/30 08:46:29;;;;;;;13.07;5.85;;;25.20;92.80;;;;;;5055250;28;20539;-69
2022/07/30 08:48:55;;;;;;;8.55;5.85;;;25.00;93.10;;;;;;5055653;28;20509;-70
2022/07/30 08:51:22;;;;;;;11.70;6.25;;;24.90;93.60;;;;;;5038874;28;20386;-70
2022/07/30 08:53:48;;;;;;;9.43;4.85;;;25.00;93.60;;;;;;5073387;28;20033;-71
2022/07/30 08:56:14;;;;;;;10.13;5.75;;;25.20;93.00;;;;;;5038976;28;20472;-70
2022/07/30 08:58:41;;;;;;;10.85;5.32;;;25.30;92.50;;;;;;5073406;28;20040;-70
2022/07/30 09:01:06;;;;;;;9.35;4.82;;;25.30;92.20;;;;;;5055321;28;20040;-71
2022/07/30 09:03:33;;;;;;;8.55;4.75;;;25.20;92.80;;;;;;5073256;28;20041;-71
2022/07/30 09:06:01;;;;;;;9.93;5.65;;;25.30;93.00;;;;;;5073172;28;20498;-70
2022/07/30 09:08:26;;;;;;;8.98;4.72;;;25.40;91.80;;;;;;5073083;28;20048;-70
2022/07/30 09:10:52;;;;;;;10.18;4.68;;;25.40;91.70;;;;;;5072907;28;20039;-71
2022/07/30 09:13:27;;;;;;;10.05;4.78;;;25.50;91.40;;;;;;5073082;28;20127;-71
2022/07/30 09:15:54;;;;;;;10.25;5.43;;;25.50;91.10;;;;;;5055038;28;20040;-70
2022/07/30 09:18:32;;;;;;;10.05;4.97;;;25.50;91.00;;;;;;5055068;28;20043;-70
2022/07/30 09:21:00;;;;;;;9.98;5.03;;;25.30;91.00;;;;;;5054729;28;20090;-70
2022/07/30 09:23:25;;;;;;;10.35;4.18;;;25.20;91.40;;;;;;5055099;28;20044;-70
2022/07/30 09:25:51;;;;;;;9.98;3.95;;;25.30;91.40;;;;;;5055256;28;20407;-71
2022/07/30 09:28:30;;;;;;;6.60;4.38;;;25.50;91.30;;;;;;5072775;28;20071;-71
2022/07/30 09:30:57;;;;;;;12.73;4.28;;;25.30;90.90;;;;;;5054488;28;20048;-70
2022/07/30 09:33:40;;;;;;;7.53;3.65;;;25.70;91.10;;;;;;5054779;28;20044;-71
2022/07/30 09:36:08;;;;;;;5.20;3.75;;;25.70;90.70;;;;;;5072920;28;20040;-70
2022/07/30 09:39:00;;;;;;;7.90;4.05;;;25.50;88.30;;;;;;5038158;28;20456;-70
2022/07/30 09:41:34;;;;;;;5.90;3.75;;;25.80;87.40;;;;;;5068316;28;20101;-71
2022/07/30 09:44:03;;;;;;;8.57;3.60;;;25.70;87.20;;;;;;5054630;28;20064;-71
2022/07/30 09:46:46;;;;;;;8.77;4.40;;;25.80;87.40;;;;;;5037974;28;20063;-70
2022/07/30 09:49:20;;;;;;;6.60;3.72;;;25.70;87.30;;;;;;5054291;28;20044;-72
2022/07/30 09:51:46;;;;;;;8.65;3.47;;;25.90;86.30;;;;;;5054265;28;20043;-70
2022/07/30 09:54:11;;;;;;;6.75;3.53;;;25.80;85.80;;;;;;5037706;28;20044;-71
2022/07/30 09:56:38;;;;;;;6.20;2.97;;;26.00;85.70;;;;;;5071374;28;20040;-71
2022/07/30 09:59:05;;;;;;;8.38;3.03;;;25.80;85.00;;;;;;5054229;28;20041;-71
2022/07/30 10:01:51;;;;;;;8.57;3.38;;;26.10;84.60;;;;;;5037696;28;20044;-72
2022/07/30 10:04:24;;;;;;;6.82;2.67;;;26.00;83.40;;;;;;5054250;28;20521;-71
2022/07/30 10:06:50;;;;;;;5.93;3.03;;;26.10;85.60;;;;;;5054390;28;20045;-71
2022/07/30 10:09:33;;;;;;;7.57;3.30;;;26.00;85.10;;;;;;5071897;28;20040;-71
2022/07/30 10:12:04;;;;;;;6.70;2.92;;;25.90;84.00;;;;;;5036913;28;20530;-72
2022/07/30 10:14:34;;;;;;;7.70;3.42;;;26.00;83.70;;;;;;5051851;28;20052;-71
2022/07/30 10:17:02;;;;;;;5.53;2.75;;;26.10;83.80;;;;;;5034195;28;20112;-71
2022/07/30 10:19:27;;;;;;;7.93;3.42;;;26.10;84.20;;;;;;5017318;28;20041;-70
2022/07/30 10:21:56;;;;;;;8.52;3.13;;;26.10;85.40;;;;;;5033940;28;20090;-71
2022/07/30 10:24:23;;;;;;;8.02;3.67;;;26.00;82.60;;;;;;5034402;28;20053;-71
2022/07/30 10:26:50;;;;;;;7.50;2.75;;;26.00;82.10;;;;;;5049426;28;20040;-71
2022/07/30 10:29:17;;;;;;;8.55;3.47;;;26.00;81.90;;;;;;5053205;28;20504;-72
2022/07/30 10:31:47;;;;;;;6.00;2.60;;;25.80;80.50;;;;;;5071820;28;20040;-72
2022/07/30 10:34:15;;;;;;;5.65;2.33;;;25.90;80.30;;;;;;5053195;28;20036;-71
2022/07/30 10:36:46;;;;;;;7.20;3.53;;;25.90;80.30;;;;;;5050698;28;20047;-72
2022/07/30 10:39:17;;;;;;;5.65;3.20;;;26.00;79.30;;;;;;5053163;28;20059;-71
2022/07/30 10:42:09;;;;;;;6.68;3.15;;;25.90;80.40;;;;;;5068938;28;20162;-71
2022/07/30 10:45:09;;;;;;;7.05;2.85;;;25.70;79.40;;;;;;5052449;28;20044;-72
2022/07/30 10:47:37;;;;;;;11.70;3.08;;;25.70;82.60;;;;;;5066285;28;20041;-73
2022/07/30 10:50:14;;;;;;;6.65;2.95;;;25.80;83.50;;;;;;5070779;28;20520;-73
2022/07/30 10:53:00;;;;;;;4.72;3.17;;;25.80;81.70;;;;;;5053814;28;20402;-70
2022/07/30 10:55:28;;;;;;;6.30;2.53;;;25.80;79.20;;;;;;5053377;28;20375;-70
2022/07/30 10:58:09;;;;;;;6.72;4.45;;;25.80;79.60;;;;;;5053292;28;20051;-70
2022/07/30 11:00:54;;;;;;;7.60;3.08;;;25.90;79.00;;;;;;5070983;28;20040;-70
2022/07/30 11:03:26;;;;;;;6.53;3.45;;;25.90;78.30;;;;;;5050769;28;20045;-70
2022/07/30 11:06:14;;;;;;;5.68;3.20;;;25.90;81.40;;;;;;5053551;28;20040;-70
2022/07/30 11:08:43;;;;;;;7.20;2.80;;;25.90;79.20;;;;;;5073534;28;20089;-70
2022/07/30 11:11:21;;;;;;;5.28;3.22;;;25.80;80.10;;;;;;5057060;28;20036;-72
2022/07/30 11:13:51;;;;;;;7.50;3.53;;;26.00;80.40;;;;;;5057344;28;20045;-73
2022/07/30 11:16:19;;;;;;;4.57;2.55;;;25.90;79.40;;;;;;5075455;28;20036;-73
2022/07/30 11:19:06;;;;;;;7.22;2.55;;;25.80;80.70;;;;;;5057474;28;20052;-72
2022/07/30 11:21:33;;;;;;;5.72;2.80;;;25.70;78.70;;;;;;5057097;28;20144;-72
2022/07/30 11:23:59;;;;;;;5.18;2.40;;;25.40;78.60;;;;;;5057189;28;20059;-74
2022/07/30 11:26:37;;;;;;;5.07;3.20;;;25.50;79.50;;;;;;5075191;28;20564;-73
2022/07/30 11:29:06;;;;;;;7.60;3.03;;;25.60;79.70;;;;;;5056666;28;20052;-73
2022/07/30 11:31:37;;;;;;;5.95;3.15;;;25.50;80.40;;;;;;5074252;28;20044;-72
2022/07/30 11:34:24;;;;;;;9.20;3.05;;;25.70;81.30;;;;;;5075046;28;20055;-73
2022/07/30 11:37:16;;;;;;;6.70;2.78;;;25.50;79.30;;;;;;5057310;28;20462;-73
2022/07/30 11:39:54;;;;;;;6.30;2.95;;;25.50;78.90;;;;;;5056608;28;20498;-73
2022/07/30 11:42:34;;;;;;;5.97;2.80;;;25.40;78.60;;;;;;5074723;28;20044;-70
2022/07/30 11:45:14;;;;;;;9.52;2.70;;;25.40;80.00;;;;;;5074786;28;20490;-70
2022/07/30 11:47:46;;;;;;;12.70;3.03;;;25.40;80.40;;;;;;5074676;28;20047;-69
2022/07/30 11:50:25;;;;;;;6.32;2.80;;;25.40;78.90;;;;;;5078164;22;20044;-72
2022/07/30 11:52:59;;;;;;;6.03;3.03;;;25.40;81.30;;;;;;5074677;28;20032;-70
2022/07/30 11:55:39;;;;;;;7.50;3.15;;;25.40;82.30;;;;;;5073034;28;20044;-71
2022/07/30 11:58:07;;;;;;;4.72;2.85;;;25.50;81.20;;;;;;5074843;28;20371;-71
2022/07/30 12:00:44;;;;;;;6.07;3.33;;;25.40;78.70;;;;;;5073361;28;20036;-71
2022/07/30 12:03:19;;;;;;;8.52;2.95;;;25.50;79.50;;;;;;5074675;28;20040;-71
2022/07/30 12:05:46;;;;;;;6.05;3.05;;;25.40;79.50;;;;;;5074533;28;20032;-71
2022/07/30 12:08:13;;;;;;;5.65;2.95;;;25.50;79.30;;;;;;5071999;28;20028;-71
2022/07/30 12:10:39;;;;;;;6.13;2.47;;;25.40;79.20;;;;;;5074074;28;20043;-70
2022/07/30 12:13:28;;;;;;;5.45;2.50;;;25.50;79.70;;;;;;5074207;28;20064;-70
2022/07/30 12:15:53;;;;;;;8.85;2.67;;;25.50;80.40;;;;;;5074603;28;20029;-70
2022/07/30 12:18:28;;;;;;;7.13;2.88;;;25.50;79.50;;;;;;5074327;28;20046;-70
2022/07/30 12:21:02;;;;;;;5.43;2.22;;;25.60;76.30;;;;;;5072779;28;20087;-70
2022/07/30 12:23:31;;;;;;;7.55;2.45;;;25.60;77.00;;;;;;5073812;28;20045;-70
2022/07/30 12:25:57;;;;;;;6.20;2.42;;;25.80;76.30;;;;;;5073009;28;20506;-70
2022/07/30 12:28:28;;;;;;;3.40;2.20;;;25.80;75.70;;;;;;5074266;28;20154;-71
2022/07/30 12:30:55;;;;;;;5.50;2.17;;;25.80;75.60;;;;;;5072380;28;20055;-70
2022/07/30 12:33:21;;;;;;;5.65;2.30;;;25.70;74.20;;;;;;5073853;28;20072;-70
2022/07/30 12:35:53;;;;;;;5.20;2.35;;;25.40;73.60;;;;;;5073896;28;20082;-70
2022/07/30 12:38:20;;;;;;;4.95;2.28;;;25.20;73.50;;;;;;5074436;28;20076;-70
2022/07/30 12:41:04;;;;;;;2.92;1.70;;;25.20;73.00;;;;;;5072229;28;20231;-70
2022/07/30 12:43:42;;;;;;;6.18;1.85;;;25.20;73.40;;;;;;5073777;28;20078;-71
2022/07/30 12:46:07;;;;;;;3.38;2.10;;;25.30;71.80;;;;;;5073774;28;20402;-70
2022/07/30 12:48:33;;;;;;;5.93;2.38;;;25.40;71.40;;;;;;5073717;28;20036;-71
2022/07/30 12:51:06;;;;;;;3.95;1.98;;;25.30;72.40;;;;;;5073327;28;20186;-71
2022/07/30 12:53:32;;;;;;;3.55;1.83;;;25.20;72.30;;;;;;5073707;28;20041;-70